createdAt,value
2018-03-04T00:01:41.659Z,58.70
2018-03-04T00:04:09.787Z,58.70
2018-03-04T00:06:37.908Z,58.60
2018-03-04T00:09:06.071Z,58.70
2018-03-04T00:11:34.951Z,58.90
2018-03-04T00:14:03.851Z,59.00
2018-03-04T00:16:32.743Z,59.10
2018-03-04T00:19:01.656Z,59.10
2018-03-04T00:21:29.785Z,59.10
2018-03-04T00:23:57.891Z,59.10
2018-03-04T00:26:26.058Z,59.80
2018-03-04T00:28:54.225Z,59.60
2018-03-04T00:31:23.115Z,59.60
2018-03-04T00:33:52.003Z,59.90
2018-03-04T00:36:20.909Z,60.30
2018-03-04T00:38:50.026Z,60.20
2018-03-04T00:41:18.173Z,60.10
2018-03-04T00:43:46.382Z,60.00
2018-03-04T00:46:15.097Z,60.30
2018-03-04T00:48:43.855Z,60.30
2018-03-04T00:51:12.058Z,60.50
2018-03-04T00:53:40.291Z,60.20
2018-03-04T00:56:08.525Z,60.30
2018-03-04T00:58:36.887Z,60.30
2018-03-04T01:01:05.023Z,60.30
2018-03-04T01:03:33.140Z,60.40
2018-03-04T01:06:02.097Z,60.50
2018-03-04T01:08:30.228Z,60.90
2018-03-04T01:10:59.102Z,61.10
2018-03-04T01:13:27.987Z,60.80
2018-03-04T01:15:56.896Z,61.40
2018-03-04T01:18:25.012Z,61.40
2018-03-04T01:20:53.236Z,60.80
2018-03-04T01:23:22.118Z,60.80
2018-03-04T01:25:51.004Z,60.90
2018-03-04T01:28:19.892Z,61.30
2018-03-04T01:30:48.017Z,60.70
2018-03-04T01:33:16.130Z,61.00
2018-03-04T01:35:44.250Z,61.00
2018-03-04T01:38:12.382Z,61.00
2018-03-04T01:40:40.566Z,61.20
2018-03-04T01:43:09.506Z,62.20
2018-03-04T01:45:37.598Z,61.40
2018-03-04T01:48:05.813Z,61.20
2018-03-04T01:50:33.982Z,60.90
2018-03-04T01:53:02.876Z,61.00
2018-03-04T01:55:30.996Z,60.90
2018-03-04T01:57:59.122Z,60.70
2018-03-04T02:00:27.264Z,60.80
2018-03-04T02:02:55.378Z,60.40
2018-03-04T02:05:23.490Z,60.40
2018-03-04T02:07:51.742Z,59.90
2018-03-04T02:10:19.870Z,59.90
2018-03-04T02:12:48.762Z,60.10
2018-03-04T02:15:17.686Z,60.10
2018-03-04T02:17:45.806Z,59.90
2018-03-04T02:20:14.026Z,59.80
2018-03-04T02:22:42.168Z,59.70
2018-03-04T02:25:11.050Z,59.70
2018-03-04T02:27:39.960Z,59.60
2018-03-04T02:30:08.860Z,59.70
2018-03-04T02:32:36.982Z,59.70
2018-03-04T02:35:05.112Z,59.50
2018-03-04T02:37:33.277Z,59.60
2018-03-04T02:40:01.417Z,59.70
2018-03-04T02:42:29.534Z,59.50
2018-03-04T02:44:57.696Z,59.70
2018-03-04T02:47:25.864Z,59.70
2018-03-04T02:49:54.752Z,59.50
2018-03-04T02:52:22.887Z,59.50
2018-03-04T02:54:51.004Z,59.60
2018-03-04T02:57:19.137Z,59.70
2018-03-04T02:59:47.252Z,59.90
2018-03-04T03:02:15.423Z,60.10
2018-03-04T03:04:43.587Z,60.60
2018-03-04T03:07:11.695Z,60.10
2018-03-04T03:09:39.824Z,60.30
2018-03-04T03:12:08.824Z,60.50
2018-03-04T03:14:37.701Z,60.80
2018-03-04T03:17:06.593Z,61.10
2018-03-04T03:19:35.491Z,61.20
2018-03-04T03:22:04.371Z,61.10
2018-03-04T03:24:33.255Z,61.10
2018-03-04T03:27:01.447Z,61.10
2018-03-04T03:29:29.628Z,61.50
2018-03-04T03:31:57.807Z,61.40
2018-03-04T03:34:25.923Z,61.30
2018-03-04T03:36:54.141Z,61.30
2018-03-04T03:39:23.047Z,61.60
2018-03-04T03:41:51.208Z,61.60
2018-03-04T03:44:20.083Z,61.70
2018-03-04T03:46:48.977Z,61.90
2018-03-04T03:49:17.879Z,62.00
2018-03-04T03:51:46.007Z,62.60
2018-03-04T03:54:15.627Z,62.20
2018-03-04T03:56:43.749Z,62.10
2018-03-04T03:59:11.887Z,61.70
2018-03-04T04:01:40.779Z,61.50
2018-03-04T04:04:08.959Z,61.50
2018-03-04T04:06:37.140Z,61.40
2018-03-04T04:09:05.328Z,61.30
2018-03-04T04:11:33.454Z,61.20
2018-03-04T04:14:01.574Z,60.70
2018-03-04T04:16:29.731Z,60.70
2018-03-04T04:18:57.855Z,60.60
2018-03-04T04:21:25.976Z,60.70
2018-03-04T04:23:54.094Z,60.30
2018-03-04T04:26:22.208Z,60.30
2018-03-04T04:28:51.107Z,60.10
2018-03-04T04:31:19.295Z,60.10
2018-03-04T04:33:47.402Z,60.30
2018-03-04T04:36:15.533Z,60.30
2018-03-04T04:38:44.645Z,60.30
2018-03-04T04:41:12.787Z,60.30
2018-03-04T04:43:41.783Z,60.10
2018-03-04T04:46:10.678Z,60.00
2018-03-04T04:48:38.797Z,60.00
2018-03-04T04:51:06.914Z,60.10
2018-03-04T04:53:35.055Z,59.90
2018-03-04T04:56:03.164Z,59.90
2018-03-04T04:58:31.338Z,59.90
2018-03-04T05:00:59.478Z,59.80
2018-03-04T05:03:27.604Z,59.80
2018-03-04T05:05:55.722Z,59.90
2018-03-04T05:08:23.834Z,60.00
2018-03-04T05:10:51.968Z,60.20
2018-03-04T05:13:20.162Z,60.30
2018-03-04T05:15:49.162Z,60.30
2018-03-04T05:18:17.290Z,60.30
2018-03-04T05:20:45.410Z,60.40
2018-03-04T05:23:13.561Z,60.40
2018-03-04T05:25:42.440Z,60.40
2018-03-04T05:28:10.554Z,60.40
2018-03-04T05:30:38.800Z,60.60
2018-03-04T05:33:07.702Z,60.30
2018-03-04T05:35:35.880Z,60.30
2018-03-04T05:38:03.994Z,60.30
2018-03-04T05:40:32.113Z,60.30
2018-03-04T05:43:01.044Z,60.90
2018-03-04T05:45:29.199Z,61.00
2018-03-04T05:47:57.360Z,60.50
2018-03-04T05:50:26.250Z,61.00
2018-03-04T05:52:55.141Z,62.00
2018-03-04T05:55:23.258Z,61.30
2018-03-04T05:57:51.380Z,61.20
2018-03-04T06:00:19.507Z,61.00
2018-03-04T06:02:47.645Z,60.60
2018-03-04T06:05:15.767Z,60.80
2018-03-04T06:07:45.501Z,60.80
2018-03-04T06:10:14.416Z,60.50
2018-03-04T06:12:42.540Z,60.50
2018-03-04T06:15:10.695Z,60.50
2018-03-04T06:17:38.823Z,60.40
2018-03-04T06:20:06.953Z,60.50
2018-03-04T06:22:35.172Z,60.30
2018-03-04T06:25:04.043Z,60.40
2018-03-04T06:27:32.924Z,60.20
2018-03-04T06:30:01.071Z,60.30
2018-03-04T06:32:29.203Z,61.10
2018-03-04T06:34:57.459Z,60.30
2018-03-04T06:37:26.335Z,60.40
2018-03-04T06:39:55.251Z,60.50
2018-03-04T06:42:24.129Z,60.50
2018-03-04T06:44:53.001Z,60.50
2018-03-04T06:47:21.941Z,60.40
2018-03-04T06:49:50.104Z,60.40
2018-03-04T06:52:18.275Z,60.70
2018-03-04T06:54:46.435Z,60.50
2018-03-04T06:57:15.323Z,61.00
2018-03-04T06:59:43.479Z,61.00
2018-03-04T07:02:11.671Z,61.30
2018-03-04T07:04:40.695Z,61.30
2018-03-04T07:07:08.791Z,61.40
2018-03-04T07:09:36.932Z,61.40
2018-03-04T07:12:05.061Z,61.40
2018-03-04T07:14:33.231Z,61.60
2018-03-04T07:17:01.351Z,61.60
2018-03-04T07:19:29.512Z,61.40
2018-03-04T07:21:57.643Z,61.70
2018-03-04T07:24:25.762Z,61.80
2018-03-04T07:26:53.919Z,61.80
2018-03-04T07:29:22.097Z,61.80
2018-03-04T07:31:50.286Z,61.80
2018-03-04T07:34:18.390Z,61.70
2018-03-04T07:36:46.634Z,61.90
2018-03-04T07:39:14.754Z,62.10
2018-03-04T07:41:42.938Z,61.90
2018-03-04T07:44:11.094Z,62.10
2018-03-04T07:46:39.204Z,62.20
2018-03-04T07:49:08.088Z,62.20
2018-03-04T07:51:36.971Z,62.60
2018-03-04T07:54:05.903Z,62.40
2018-03-04T07:56:34.002Z,62.40
2018-03-04T07:59:02.113Z,62.60
2018-03-04T08:01:31.022Z,62.40
2018-03-04T08:03:59.148Z,62.40
2018-03-04T08:06:27.293Z,62.70
2018-03-04T08:08:55.402Z,62.70
2018-03-04T08:11:24.328Z,62.90
2018-03-04T08:13:53.206Z,62.90
2018-03-04T08:16:21.330Z,62.90
2018-03-04T08:18:49.466Z,62.90
2018-03-04T08:21:17.594Z,63.00
2018-03-04T08:23:45.750Z,63.00
2018-03-04T08:26:25.858Z,63.20
2018-03-04T08:28:54.008Z,63.50
2018-03-04T08:31:22.889Z,63.40
2018-03-04T08:33:51.086Z,63.40
2018-03-04T08:36:19.254Z,63.30
2018-03-04T08:38:47.434Z,63.60
2018-03-04T08:41:15.566Z,63.80
2018-03-04T08:43:43.704Z,63.80
2018-03-04T08:46:11.852Z,63.90
2018-03-04T08:48:40.016Z,63.90
2018-03-04T08:51:08.928Z,64.60
2018-03-04T08:53:37.048Z,64.60
2018-03-04T08:56:05.154Z,65.10
2018-03-04T08:58:34.148Z,65.10
2018-03-04T09:01:02.274Z,65.00
2018-03-04T09:03:30.440Z,65.10
2018-03-04T09:05:58.530Z,65.00
2018-03-04T09:08:26.656Z,65.00
2018-03-04T09:10:54.808Z,64.90
2018-03-04T09:13:23.699Z,65.50
2018-03-04T09:15:52.602Z,65.50
2018-03-04T09:18:20.772Z,65.60
2018-03-04T09:20:48.952Z,65.20
2018-03-04T09:23:17.120Z,65.50
2018-03-04T09:25:45.223Z,65.60
2018-03-04T09:28:13.392Z,65.60
2018-03-04T09:30:41.516Z,65.60
2018-03-04T09:33:10.422Z,66.20
2018-03-04T09:35:38.594Z,66.20
2018-03-04T09:40:41.453Z,65.30
2018-03-04T09:43:09.564Z,65.60
2018-03-04T09:45:37.703Z,65.70
2018-03-04T09:48:05.819Z,65.50
2018-03-04T09:50:33.932Z,65.60
2018-03-04T09:53:02.160Z,65.40
2018-03-04T09:55:31.088Z,66.00
2018-03-04T09:57:59.200Z,65.90
2018-03-04T10:00:27.399Z,66.00
2018-03-04T10:02:55.499Z,66.10
2018-03-04T10:05:23.641Z,66.20
2018-03-04T10:07:51.755Z,66.40
2018-03-04T10:10:19.867Z,66.40
2018-03-04T10:12:48.789Z,66.50
2018-03-04T10:15:17.662Z,66.30
2018-03-04T10:17:46.555Z,66.20
2018-03-04T10:20:15.424Z,66.30
2018-03-04T10:22:44.349Z,66.90
2018-03-04T10:25:12.518Z,66.20
2018-03-04T10:27:40.723Z,66.30
2018-03-04T10:30:08.841Z,66.20
2018-03-04T10:32:37.733Z,66.20
2018-03-04T10:35:06.677Z,66.00
2018-03-04T10:37:34.829Z,66.00
2018-03-04T10:40:02.947Z,66.10
2018-03-04T10:42:31.081Z,66.10
2018-03-04T10:44:59.215Z,66.00
2018-03-04T10:47:28.179Z,66.60
2018-03-04T10:49:56.443Z,65.90
2018-03-04T10:52:24.589Z,65.90
2018-03-04T10:54:52.710Z,65.80
2018-03-04T10:57:20.815Z,65.90
2018-03-04T10:59:48.936Z,66.10
2018-03-04T11:02:23.052Z,65.80
2018-03-04T11:04:51.174Z,65.90
2018-03-04T11:07:19.605Z,65.50
2018-03-04T11:09:50.160Z,65.60
2018-03-04T11:12:19.364Z,65.90
2018-03-04T11:14:48.737Z,66.00
2018-03-04T11:17:16.902Z,66.00
2018-03-04T11:19:45.017Z,66.20
2018-03-04T11:22:13.193Z,64.90
2018-03-04T11:24:41.339Z,64.80
2018-03-04T11:27:09.561Z,65.00
2018-03-04T11:29:37.720Z,65.30
2018-03-04T11:32:06.711Z,65.70
2018-03-04T11:34:35.607Z,65.50
2018-03-04T11:37:03.718Z,65.50
2018-03-04T11:39:31.870Z,65.60
2018-03-04T11:42:00.017Z,65.50
2018-03-04T11:44:28.169Z,64.90
2018-03-04T11:46:57.040Z,64.80
2018-03-04T11:49:25.176Z,64.60
2018-03-04T11:51:53.318Z,64.30
2018-03-04T11:54:22.220Z,65.20
2018-03-04T11:56:50.346Z,65.10
2018-03-04T11:59:18.560Z,65.40
2018-03-04T12:01:46.768Z,64.40
2018-03-04T12:04:14.912Z,63.10
2018-03-04T12:06:43.154Z,64.40
2018-03-04T12:09:11.268Z,63.90
2018-03-04T12:11:39.460Z,63.70
2018-03-04T12:14:07.584Z,63.00
2018-03-04T12:16:36.496Z,62.90
2018-03-04T12:19:04.654Z,62.90
2018-03-04T12:21:33.536Z,64.60
2018-03-04T12:24:02.448Z,64.80
2018-03-04T12:26:30.579Z,64.00
2018-03-04T12:28:58.832Z,63.40
2018-03-04T12:31:26.924Z,61.70
2018-03-04T12:33:55.051Z,62.70
2018-03-04T12:36:23.212Z,63.60
2018-03-04T12:38:51.339Z,63.10
2018-03-04T12:41:19.576Z,63.10
2018-03-04T12:43:47.857Z,63.10
2018-03-04T12:46:16.004Z,62.40
2018-03-04T12:48:44.147Z,62.70
2018-03-04T12:51:12.372Z,63.80
2018-03-04T12:53:40.502Z,63.70
2018-03-04T12:56:08.692Z,63.50
2018-03-04T12:58:37.626Z,62.40
2018-03-04T13:01:05.779Z,62.20
2018-03-04T13:03:33.968Z,60.50
2018-03-04T13:06:02.123Z,61.60
2018-03-04T13:08:30.263Z,60.30
2018-03-04T13:10:58.403Z,61.50
2018-03-04T13:13:26.547Z,61.00
2018-03-04T13:15:54.736Z,61.70
2018-03-04T13:18:22.883Z,61.10
2018-03-04T13:20:51.068Z,61.20
2018-03-04T13:23:19.187Z,62.10
2018-03-04T13:25:47.437Z,61.60
2018-03-04T13:28:15.690Z,61.50
2018-03-04T13:30:43.861Z,61.00
2018-03-04T13:33:11.998Z,61.10
2018-03-04T13:35:40.158Z,61.70
2018-03-04T13:38:09.803Z,58.80
2018-03-04T13:40:38.736Z,59.10
2018-03-04T13:43:07.691Z,58.40
2018-03-04T13:45:36.611Z,60.30
2018-03-04T13:48:04.769Z,60.30
2018-03-04T13:50:32.931Z,60.10
2018-03-04T13:53:01.119Z,61.10
2018-03-04T13:55:29.315Z,60.80
2018-03-04T13:57:57.551Z,60.30
2018-03-04T14:00:25.667Z,60.40
2018-03-04T14:02:53.833Z,59.70
2018-03-04T14:05:22.179Z,59.70
2018-03-04T14:07:50.319Z,60.10
2018-03-04T14:10:19.206Z,60.70
2018-03-04T14:12:48.099Z,60.60
2018-03-04T14:15:17.027Z,60.10
2018-03-04T14:17:46.179Z,60.10
2018-03-04T14:20:15.181Z,60.60
2018-03-04T14:22:43.253Z,60.50
2018-03-04T14:25:12.890Z,59.90
2018-03-04T14:27:41.026Z,59.90
2018-03-04T14:30:09.153Z,59.70
2018-03-04T14:32:37.346Z,60.30
2018-03-04T14:35:05.500Z,59.30
2018-03-04T14:37:33.635Z,59.90
2018-03-04T14:40:02.570Z,59.90
2018-03-04T14:42:30.687Z,59.90
2018-03-04T14:44:58.863Z,59.30
2018-03-04T14:47:27.791Z,58.60
2018-03-04T14:49:55.963Z,58.60
2018-03-04T14:52:24.130Z,59.10
2018-03-04T14:54:52.266Z,59.50
2018-03-04T14:57:20.410Z,59.20
2018-03-04T14:59:48.550Z,59.00
2018-03-04T15:02:16.662Z,58.50
2018-03-04T15:04:44.809Z,58.80
2018-03-04T15:07:12.995Z,58.70
2018-03-04T15:09:41.150Z,58.80
2018-03-04T15:12:09.270Z,58.90
2018-03-04T15:14:37.424Z,58.80
2018-03-04T15:17:05.832Z,58.70
2018-03-04T15:19:34.718Z,58.60
2018-03-04T15:22:02.882Z,58.60
2018-03-04T15:24:30.994Z,59.00
2018-03-04T15:26:59.912Z,58.90
2018-03-04T15:29:28.043Z,58.90
2018-03-04T15:31:57.668Z,58.70
2018-03-04T15:34:26.594Z,58.70
2018-03-04T15:36:55.524Z,59.20
2018-03-04T15:39:23.681Z,58.60
2018-03-04T15:41:51.836Z,59.00
2018-03-04T15:44:19.936Z,58.50
2018-03-04T15:46:48.195Z,58.10
2018-03-04T15:49:16.310Z,58.50
2018-03-04T15:51:45.185Z,58.20
2018-03-04T15:54:13.299Z,58.10
2018-03-04T15:56:41.430Z,57.90
2018-03-04T15:59:09.652Z,58.40
2018-03-04T16:01:37.872Z,58.30
2018-03-04T16:04:06.796Z,58.60
2018-03-04T16:06:35.684Z,58.80
2018-03-04T16:09:04.576Z,58.50
2018-03-04T16:11:33.470Z,58.30
2018-03-04T16:14:02.454Z,58.60
2018-03-04T16:16:31.476Z,58.40
2018-03-04T16:18:59.575Z,58.40
2018-03-04T16:21:27.705Z,58.50
2018-03-04T16:23:56.626Z,58.70
2018-03-04T16:26:24.752Z,58.70
2018-03-04T16:28:53.660Z,59.60
2018-03-04T16:31:21.836Z,59.10
2018-03-04T16:33:50.064Z,59.10
2018-03-04T16:36:18.183Z,59.10
2018-03-04T16:38:46.359Z,59.30
2018-03-04T16:41:14.501Z,59.30
2018-03-04T16:43:43.392Z,59.40
2018-03-04T16:46:12.281Z,60.20
2018-03-04T16:48:40.479Z,59.50
2018-03-04T16:51:09.355Z,59.80
2018-03-04T16:53:37.496Z,59.70
2018-03-04T16:56:05.628Z,59.80
2018-03-04T16:58:33.771Z,59.90
2018-03-04T17:01:02.693Z,60.20
2018-03-04T17:03:30.859Z,60.10
2018-03-04T17:05:59.760Z,60.10
2018-03-04T17:08:27.951Z,60.10
2018-03-04T17:10:56.063Z,60.30
2018-03-04T17:13:25.711Z,60.50
2018-03-04T17:15:53.843Z,60.50
2018-03-04T17:18:22.057Z,60.40
2018-03-04T17:20:50.195Z,60.80
2018-03-04T17:23:19.083Z,61.00
2018-03-04T17:25:47.287Z,61.00
2018-03-04T17:28:16.189Z,60.90
2018-03-04T17:30:44.319Z,60.90
2018-03-04T17:33:13.969Z,62.10
2018-03-04T17:35:42.152Z,62.10
2018-03-04T17:38:10.274Z,61.20
2018-03-04T17:40:39.151Z,62.20
2018-03-04T17:43:07.282Z,63.00
2018-03-04T17:45:35.539Z,62.50
2018-03-04T17:48:04.423Z,63.40
2018-03-04T17:50:33.342Z,63.30
2018-03-04T17:53:01.479Z,63.30
2018-03-04T17:55:30.386Z,63.20
2018-03-04T17:57:59.282Z,64.00
2018-03-04T18:00:27.463Z,64.00
2018-03-04T18:02:55.638Z,64.80
2018-03-04T18:05:23.831Z,64.10
2018-03-04T18:07:51.982Z,64.90
2018-03-04T18:10:20.861Z,64.50
2018-03-04T18:12:49.027Z,64.50
2018-03-04T18:15:17.929Z,64.00
2018-03-04T18:17:46.066Z,63.80
2018-03-04T18:20:14.213Z,64.00
2018-03-04T18:22:42.354Z,64.30
2018-03-04T18:25:11.706Z,65.20
2018-03-04T18:27:39.860Z,63.70
2018-03-04T18:30:08.032Z,64.50
2018-03-04T18:32:36.162Z,64.40
2018-03-04T18:35:05.050Z,64.40
2018-03-04T18:37:33.953Z,64.40
2018-03-04T18:40:02.069Z,64.40
2018-03-04T18:42:30.294Z,64.40
2018-03-04T18:44:58.434Z,64.40
2018-03-04T18:47:26.566Z,64.80
2018-03-04T18:49:54.712Z,64.30
2018-03-04T18:52:22.831Z,64.40
2018-03-04T18:54:50.952Z,64.50
2018-03-04T18:57:19.946Z,64.20
2018-03-04T18:59:48.158Z,64.20
2018-03-04T19:02:16.257Z,65.00
2018-03-04T19:04:44.474Z,64.60
2018-03-04T19:07:12.779Z,65.10
2018-03-04T19:09:40.879Z,65.10
2018-03-04T19:12:08.997Z,65.10
2018-03-04T19:14:37.166Z,65.50
2018-03-04T19:17:05.308Z,65.30
2018-03-04T19:19:33.508Z,66.30
2018-03-04T19:22:02.393Z,67.70
2018-03-04T19:24:31.294Z,68.20
2018-03-04T19:27:00.204Z,68.90
2018-03-04T19:29:28.356Z,68.90
2018-03-04T19:31:57.237Z,67.90
2018-03-04T19:34:26.143Z,68.60
2018-03-04T19:36:54.310Z,68.60
2018-03-04T19:39:23.192Z,69.10
2018-03-04T19:41:52.090Z,70.10
2018-03-04T19:44:21.460Z,69.20
2018-03-04T19:46:49.576Z,69.20
2018-03-04T19:49:17.744Z,69.40
2018-03-04T19:51:45.855Z,70.90
2018-03-04T19:54:13.984Z,70.20
2018-03-04T19:56:42.886Z,70.10
2018-03-04T19:59:10.993Z,70.10
2018-03-04T20:01:39.096Z,70.40
2018-03-04T20:04:08.054Z,70.10
2018-03-04T20:06:36.190Z,70.10
2018-03-04T20:09:04.312Z,70.30
2018-03-04T20:11:32.416Z,70.20
2018-03-04T20:14:01.414Z,69.40
2018-03-04T20:16:30.412Z,70.10
2018-03-04T20:18:59.288Z,69.70
2018-03-04T20:21:28.184Z,70.00
2018-03-04T20:23:56.286Z,70.00
2018-03-04T20:26:24.398Z,70.30
2018-03-04T20:28:52.615Z,70.00
2018-03-04T20:31:21.503Z,70.40
2018-03-04T20:33:50.396Z,70.10
2018-03-04T20:36:18.578Z,70.10
2018-03-04T20:38:46.694Z,70.10
2018-03-04T20:41:14.816Z,69.60
2018-03-04T20:43:42.949Z,69.70
2018-03-04T20:46:11.048Z,70.20
2018-03-04T20:48:40.048Z,70.00
2018-03-04T20:51:08.936Z,70.00
2018-03-04T20:53:37.816Z,70.50
2018-03-04T20:56:06.707Z,70.70
2018-03-04T20:58:35.587Z,69.80
2018-03-04T21:01:03.791Z,70.30
2018-03-04T21:03:31.939Z,70.30
2018-03-04T21:06:00.153Z,70.40
2018-03-04T21:08:28.273Z,70.80
2018-03-04T21:10:56.479Z,71.30
2018-03-04T21:13:24.647Z,70.70
2018-03-04T21:15:53.521Z,71.20
2018-03-04T21:18:21.679Z,71.10
2018-03-04T21:20:49.806Z,70.40
2018-03-04T21:23:17.959Z,71.10
2018-03-04T21:25:46.954Z,70.00
2018-03-04T21:28:15.130Z,70.00
2018-03-04T21:30:44.057Z,70.50
2018-03-04T21:33:12.159Z,70.50
2018-03-04T21:35:40.333Z,70.70
2018-03-04T21:38:08.475Z,71.00
2018-03-04T21:40:36.587Z,70.70
2018-03-04T21:43:04.709Z,71.40
2018-03-04T21:45:32.832Z,71.60
2018-03-04T21:48:01.621Z,71.40
2018-03-04T21:50:30.506Z,71.90
2018-03-04T21:52:58.642Z,71.90
2018-03-04T21:55:26.807Z,72.70
2018-03-04T21:57:54.933Z,71.90
2018-03-04T22:00:23.044Z,72.00
2018-03-04T22:02:51.178Z,73.70
2018-03-04T22:05:19.301Z,72.10
2018-03-04T22:07:47.438Z,72.70
2018-03-04T22:10:15.576Z,72.20
2018-03-04T22:12:43.790Z,71.80
2018-03-04T22:15:11.904Z,72.20
2018-03-04T22:17:40.049Z,72.50
2018-03-04T22:20:08.185Z,71.90
2018-03-04T22:22:36.318Z,72.00
2018-03-04T22:25:04.455Z,72.30
2018-03-04T22:27:32.600Z,72.20
2018-03-04T22:30:01.486Z,72.30
2018-03-04T22:32:30.403Z,71.90
2018-03-04T22:34:58.560Z,71.90
2018-03-04T22:37:27.480Z,72.00
2018-03-04T22:39:55.644Z,72.00
2018-03-04T22:42:23.832Z,71.70
2018-03-04T22:44:51.954Z,71.90
2018-03-04T22:47:20.168Z,71.70
2018-03-04T22:49:48.312Z,71.80
2018-03-04T22:52:17.230Z,71.70
2018-03-04T22:54:46.108Z,72.00
2018-03-04T22:57:15.019Z,71.60
2018-03-04T22:59:43.144Z,71.70
2018-03-04T23:02:12.080Z,71.30
2018-03-04T23:04:40.185Z,71.30
2018-03-04T23:07:08.304Z,70.70
2018-03-04T23:09:37.202Z,70.20
2018-03-04T23:12:06.092Z,70.60
2018-03-04T23:14:34.985Z,70.60
2018-03-04T23:17:03.863Z,70.40
2018-03-04T23:19:32.867Z,70.40
2018-03-04T23:22:00.994Z,70.40
2018-03-04T23:24:29.107Z,71.20
2018-03-04T23:26:58.001Z,69.80
2018-03-04T23:29:26.893Z,70.30
2018-03-04T23:31:55.764Z,70.50
2018-03-04T23:34:24.644Z,71.40
2018-03-04T23:36:52.847Z,71.20
2018-03-04T23:39:20.979Z,70.80
2018-03-04T23:41:49.129Z,70.40
2018-03-04T23:44:17.275Z,70.30
2018-03-04T23:46:46.256Z,70.70
2018-03-04T23:49:15.165Z,70.70
2018-03-04T23:51:43.289Z,70.60
2018-03-04T23:54:11.389Z,70.30
2018-03-04T23:56:40.389Z,70.70
2018-03-04T23:59:08.539Z,70.60
